createdAt,value
2017-11-07T00:02:04.050Z,14.40
2017-11-07T00:04:30.232Z,15.90
2017-11-07T00:06:56.428Z,14.20
2017-11-07T00:09:22.671Z,17.13
2017-11-07T00:11:49.662Z,16.20
2017-11-07T00:14:15.911Z,15.10
2017-11-07T00:16:42.207Z,16.80
2017-11-07T00:19:09.192Z,22.87
2017-11-07T00:21:35.460Z,14.90
2017-11-07T00:24:01.719Z,21.10
2017-11-07T00:26:28.679Z,16.47
2017-11-07T00:28:54.926Z,16.97
2017-11-07T00:31:21.125Z,17.77
2017-11-07T00:33:48.063Z,24.03
2017-11-07T00:36:15.009Z,16.73
2017-11-07T00:38:41.953Z,20.60
2017-11-07T00:41:08.925Z,18.50
2017-11-07T00:43:35.164Z,20.80
2017-11-07T00:46:01.411Z,20.83
2017-11-07T00:48:27.648Z,24.13
2017-11-07T00:50:53.874Z,18.97
2017-11-07T00:53:20.139Z,20.70
2017-11-07T00:55:47.089Z,15.00
2017-11-07T00:58:13.421Z,24.17
2017-11-07T01:00:39.691Z,20.40
2017-11-07T01:03:06.664Z,19.40
2017-11-07T01:05:32.835Z,20.83
2017-11-07T01:07:59.078Z,21.17
2017-11-07T01:10:25.370Z,20.07
2017-11-07T01:12:51.646Z,20.20
2017-11-07T01:15:17.916Z,21.57
2017-11-07T01:17:44.162Z,20.57
2017-11-07T01:20:10.414Z,20.07
2017-11-07T01:22:36.943Z,22.33
2017-11-07T01:25:03.149Z,17.63
2017-11-07T01:27:29.397Z,27.23
2017-11-07T01:29:55.653Z,19.33
2017-11-07T01:32:21.827Z,21.70
2017-11-07T01:34:48.117Z,19.70
2017-11-07T01:37:15.119Z,22.57
2017-11-07T01:39:41.386Z,19.30
2017-11-07T01:42:07.651Z,19.07
2017-11-07T01:44:33.912Z,23.33
2017-11-07T01:47:00.124Z,18.33
2017-11-07T01:49:26.349Z,21.37
2017-11-07T01:51:52.682Z,19.57
2017-11-07T01:54:18.940Z,21.83
2017-11-07T01:56:45.101Z,18.17
2017-11-07T01:59:12.175Z,23.17
2017-11-07T02:01:38.488Z,20.20
2017-11-07T02:04:05.464Z,22.60
2017-11-07T02:06:31.711Z,18.40
2017-11-07T02:08:57.948Z,14.80
2017-11-07T02:11:24.152Z,16.53
2017-11-07T02:13:50.456Z,18.50
2017-11-07T02:16:16.732Z,14.00
2017-11-07T02:18:42.955Z,16.70
2017-11-07T02:21:09.193Z,14.23
2017-11-07T02:23:35.496Z,15.47
2017-11-07T02:26:01.762Z,13.77
2017-11-07T02:28:28.096Z,15.80
2017-11-07T02:30:55.116Z,13.67
2017-11-07T02:33:21.340Z,14.53
2017-11-07T02:35:47.658Z,16.47
2017-11-07T02:38:13.916Z,15.30
2017-11-07T02:40:40.107Z,14.20
2017-11-07T02:43:06.396Z,13.60
2017-11-07T02:45:33.364Z,17.80
2017-11-07T02:48:00.411Z,12.63
2017-11-07T02:50:27.384Z,13.23
2017-11-07T02:52:53.700Z,12.23
2017-11-07T02:55:19.918Z,14.17
2017-11-07T02:57:46.187Z,11.80
2017-11-07T03:00:12.430Z,16.13
2017-11-07T03:02:38.704Z,12.00
2017-11-07T03:05:05.653Z,14.40
2017-11-07T03:07:32.532Z,12.20
2017-11-07T03:09:58.804Z,14.73
2017-11-07T03:12:25.005Z,12.97
2017-11-07T03:14:51.954Z,10.57
2017-11-07T03:17:18.163Z,13.03
2017-11-07T03:19:44.411Z,8.43
2017-11-07T03:22:10.674Z,16.60
2017-11-07T03:24:37.678Z,9.40
2017-11-07T03:27:03.899Z,8.73
2017-11-07T03:29:30.190Z,12.70
2017-11-07T03:31:57.170Z,15.67
2017-11-07T03:34:23.413Z,9.03
2017-11-07T03:36:49.699Z,15.00
2017-11-07T03:39:15.970Z,9.80
2017-11-07T03:41:42.231Z,11.20
2017-11-07T03:44:09.168Z,8.67
2017-11-07T03:46:36.094Z,10.43
2017-11-07T03:49:02.774Z,11.33
2017-11-07T03:51:29.736Z,12.70
2017-11-07T03:53:55.974Z,10.57
2017-11-07T03:56:22.210Z,9.90
2017-11-07T03:58:48.431Z,8.87
2017-11-07T04:01:14.694Z,11.60
2017-11-07T04:03:40.942Z,15.30
2017-11-07T04:06:07.923Z,10.10
2017-11-07T04:08:34.228Z,9.23
2017-11-07T04:11:00.479Z,14.83
2017-11-07T04:13:27.440Z,8.70
2017-11-07T04:15:53.734Z,10.07
2017-11-07T04:18:20.812Z,10.43
2017-11-07T04:20:46.993Z,9.77
2017-11-07T04:23:13.217Z,8.70
2017-11-07T04:25:39.459Z,11.30
2017-11-07T04:28:06.451Z,11.73
2017-11-07T04:30:32.736Z,13.30
2017-11-07T04:32:58.929Z,15.07
2017-11-07T04:35:25.160Z,10.93
2017-11-07T04:37:51.406Z,7.53
2017-11-07T04:40:17.620Z,10.70
2017-11-07T04:42:43.903Z,7.83
2017-11-07T04:45:10.155Z,8.47
2017-11-07T04:47:36.356Z,10.57
2017-11-07T04:50:03.394Z,8.40
2017-11-07T04:52:30.332Z,14.57
2017-11-07T04:54:56.516Z,6.70
2017-11-07T04:57:22.817Z,9.50
2017-11-07T04:59:49.058Z,10.73
2017-11-07T05:02:15.284Z,8.70
2017-11-07T05:04:41.537Z,9.93
2017-11-07T05:07:07.808Z,8.90
2017-11-07T05:09:34.785Z,11.00
2017-11-07T05:12:01.025Z,6.70
2017-11-07T05:14:27.236Z,7.10
2017-11-07T05:16:53.460Z,6.33
2017-11-07T05:19:19.685Z,17.60
2017-11-07T05:21:45.876Z,6.53
2017-11-07T05:24:12.143Z,8.30
2017-11-07T05:26:38.380Z,7.33
2017-11-07T05:29:04.587Z,11.13
2017-11-07T05:31:31.584Z,12.63
2017-11-07T05:33:57.780Z,9.50
2017-11-07T05:36:23.991Z,7.50
2017-11-07T05:38:50.982Z,6.77
2017-11-07T05:41:17.190Z,9.80
2017-11-07T05:43:43.397Z,10.10
2017-11-07T05:46:10.349Z,12.00
2017-11-07T05:48:37.350Z,8.53
2017-11-07T05:51:03.641Z,8.80
2017-11-07T05:53:29.894Z,12.20
2017-11-07T05:55:56.176Z,9.40
2017-11-07T05:58:23.120Z,6.83
2017-11-07T06:00:50.139Z,12.93
2017-11-07T06:03:16.408Z,10.33
2017-11-07T06:05:42.645Z,8.83
2017-11-07T06:08:08.827Z,9.73
2017-11-07T06:10:36.804Z,6.53
2017-11-07T06:13:03.043Z,11.53
2017-11-07T06:15:30.001Z,9.00
2017-11-07T06:17:56.987Z,10.00
2017-11-07T06:20:23.239Z,6.90
2017-11-07T06:22:49.468Z,9.53
2017-11-07T06:25:15.731Z,8.63
2017-11-07T06:27:42.724Z,8.23
2017-11-07T06:30:09.011Z,8.70
2017-11-07T06:32:35.236Z,9.00
2017-11-07T06:35:02.227Z,9.73
2017-11-07T06:37:28.461Z,10.10
2017-11-07T06:39:54.684Z,7.03
2017-11-07T06:42:20.958Z,8.73
2017-11-07T06:44:47.962Z,7.37
2017-11-07T06:47:14.186Z,8.80
2017-11-07T06:49:40.408Z,10.70
2017-11-07T06:52:06.628Z,10.07
2017-11-07T06:54:32.882Z,7.73
2017-11-07T06:56:59.881Z,6.87
2017-11-07T06:59:26.132Z,18.50
2017-11-07T07:01:52.387Z,9.63
2017-11-07T07:04:18.636Z,7.20
2017-11-07T07:06:44.887Z,7.60
2017-11-07T07:09:11.923Z,9.00
2017-11-07T07:11:38.938Z,8.43
2017-11-07T07:14:05.120Z,13.17
2017-11-07T07:16:31.380Z,8.47
2017-11-07T07:18:57.615Z,8.17
2017-11-07T07:21:23.855Z,8.40
2017-11-07T07:23:50.805Z,7.93
2017-11-07T07:26:17.082Z,11.07
2017-11-07T07:28:43.292Z,8.43
2017-11-07T07:31:10.254Z,9.10
2017-11-07T07:33:36.448Z,9.00
2017-11-07T07:36:03.414Z,9.90
2017-11-07T07:38:30.440Z,11.40
2017-11-07T07:40:57.405Z,10.20
2017-11-07T07:43:24.403Z,11.80
2017-11-07T07:45:50.665Z,10.03
2017-11-07T07:48:16.932Z,13.50
2017-11-07T07:50:43.119Z,10.67
2017-11-07T07:53:09.295Z,12.37
2017-11-07T07:55:35.535Z,9.80
2017-11-07T07:58:01.800Z,10.40
2017-11-07T08:00:28.086Z,12.37
2017-11-07T08:02:54.370Z,11.93
2017-11-07T08:05:22.220Z,12.30
2017-11-07T08:07:48.491Z,15.80
2017-11-07T08:10:14.834Z,14.83
2017-11-07T08:12:41.086Z,14.17
2017-11-07T08:15:07.386Z,15.50
2017-11-07T08:17:33.670Z,15.90
2017-11-07T08:20:00.708Z,12.87
2017-11-07T08:22:26.947Z,13.73
2017-11-07T08:24:53.950Z,13.70
2017-11-07T08:27:20.164Z,16.20
2017-11-07T08:29:46.396Z,14.40
2017-11-07T08:32:12.646Z,17.50
2017-11-07T08:34:38.914Z,17.60
2017-11-07T08:37:05.156Z,14.43
2017-11-07T08:39:32.157Z,14.80
2017-11-07T08:42:05.391Z,13.50
2017-11-07T08:44:32.401Z,18.17
2017-11-07T08:46:58.756Z,14.40
2017-11-07T08:49:25.675Z,15.57
2017-11-07T08:51:51.871Z,15.30
2017-11-07T08:54:18.129Z,16.70
2017-11-07T08:56:44.592Z,16.50
2017-11-07T08:59:11.543Z,17.00
2017-11-07T09:01:37.794Z,13.30
2017-11-07T09:04:04.024Z,13.97
2017-11-07T09:06:31.027Z,15.20
2017-11-07T09:08:58.002Z,17.70
2017-11-07T09:11:24.200Z,15.43
2017-11-07T09:13:50.460Z,15.50
2017-11-07T09:16:17.496Z,15.33
2017-11-07T09:18:43.799Z,21.37
2017-11-07T09:21:10.094Z,16.30
2017-11-07T09:23:36.354Z,16.03
2017-11-07T09:26:02.659Z,15.33
2017-11-07T09:28:28.964Z,15.00
2017-11-07T09:30:55.972Z,16.50
2017-11-07T09:33:22.236Z,16.17
2017-11-07T09:35:49.320Z,18.50
2017-11-07T09:38:15.561Z,17.37
2017-11-07T09:40:41.741Z,16.83
2017-11-07T09:43:08.697Z,21.37
2017-11-07T09:45:35.649Z,16.30
2017-11-07T09:48:02.618Z,16.87
2017-11-07T09:50:28.883Z,18.20
2017-11-07T09:52:55.106Z,23.63
2017-11-07T09:55:21.368Z,17.83
2017-11-07T09:57:48.387Z,16.87
2017-11-07T10:00:14.639Z,20.93
2017-11-07T10:02:41.680Z,20.70
2017-11-07T10:05:08.673Z,17.03
2017-11-07T10:07:34.879Z,20.23
2017-11-07T10:10:01.093Z,19.67
2017-11-07T10:12:28.017Z,16.70
2017-11-07T10:14:54.221Z,20.13
2017-11-07T10:17:20.482Z,20.77
2017-11-07T10:19:47.489Z,19.50
2017-11-07T10:22:13.711Z,19.63
2017-11-07T10:24:39.955Z,19.80
2017-11-07T10:27:06.168Z,22.97
2017-11-07T10:29:32.451Z,22.03
2017-11-07T10:31:59.424Z,21.93
2017-11-07T10:34:26.005Z,21.47
2017-11-07T10:36:52.248Z,23.20
2017-11-07T10:39:18.524Z,30.10
2017-11-07T10:41:44.800Z,23.67
2017-11-07T10:44:10.967Z,25.80
2017-11-07T10:46:37.215Z,21.60
2017-11-07T10:49:03.468Z,23.70
2017-11-07T10:51:29.713Z,21.27
2017-11-07T10:53:56.008Z,20.97
2017-11-07T10:56:22.282Z,24.70
2017-11-07T10:58:48.519Z,22.77
2017-11-07T11:01:15.481Z,21.70
2017-11-07T11:03:42.468Z,22.47
2017-11-07T11:06:08.655Z,23.33
2017-11-07T11:08:35.601Z,28.40
2017-11-07T11:11:02.616Z,25.33
2017-11-07T11:13:29.574Z,25.17
2017-11-07T11:15:56.507Z,21.70
2017-11-07T11:18:22.750Z,23.10
2017-11-07T11:20:49.728Z,23.30
2017-11-07T11:23:15.941Z,24.17
2017-11-07T11:25:42.907Z,23.83
2017-11-07T11:28:09.076Z,19.90
2017-11-07T11:30:35.346Z,27.43
2017-11-07T11:33:01.592Z,23.23
2017-11-07T11:35:27.799Z,22.33
2017-11-07T11:37:54.735Z,24.60
2017-11-07T11:40:21.724Z,30.33
2017-11-07T11:42:47.975Z,27.13
2017-11-07T11:45:14.248Z,31.63
2017-11-07T11:47:40.526Z,23.57
2017-11-07T11:50:06.802Z,24.97
2017-11-07T11:52:33.767Z,23.07
2017-11-07T11:55:00.028Z,24.83
2017-11-07T11:57:26.288Z,21.83
2017-11-07T11:59:52.535Z,24.97
2017-11-07T12:02:19.600Z,20.67
2017-11-07T12:04:45.920Z,21.00
2017-11-07T12:07:12.956Z,24.20
2017-11-07T12:09:40.005Z,20.77
2017-11-07T12:12:06.979Z,25.37
2017-11-07T12:14:33.276Z,21.30
2017-11-07T12:17:00.232Z,22.97
2017-11-07T12:19:27.171Z,21.17
2017-11-07T12:21:54.871Z,21.60
2017-11-07T12:24:21.111Z,20.53
2017-11-07T12:26:47.375Z,26.50
2017-11-07T12:29:13.710Z,22.37
2017-11-07T12:31:40.722Z,24.23
2017-11-07T12:34:07.024Z,24.90
2017-11-07T12:36:33.278Z,23.20
2017-11-07T12:39:00.540Z,25.13
2017-11-07T12:41:26.757Z,22.67
2017-11-07T12:43:54.120Z,26.47
2017-11-07T12:46:20.397Z,25.17
2017-11-07T12:48:47.365Z,23.17
2017-11-07T12:51:26.328Z,28.37
2017-11-07T12:53:52.789Z,26.17
2017-11-07T12:56:19.084Z,25.17
2017-11-07T12:58:45.397Z,26.17
2017-11-07T13:01:11.620Z,25.67
2017-11-07T13:03:37.837Z,24.93
2017-11-07T13:06:04.137Z,24.37
2017-11-07T13:08:31.162Z,28.43
2017-11-07T13:10:57.408Z,29.13
2017-11-07T13:13:23.677Z,28.80
2017-11-07T13:15:49.945Z,29.80
2017-11-07T13:18:16.131Z,28.57
2017-11-07T13:20:42.329Z,25.97
2017-11-07T13:23:08.569Z,28.23
2017-11-07T13:25:35.500Z,23.13
2017-11-07T13:28:01.684Z,27.60
2017-11-07T13:30:27.915Z,23.87
2017-11-07T13:32:54.148Z,26.33
2017-11-07T13:35:20.390Z,28.27
2017-11-07T13:37:46.661Z,29.37
2017-11-07T13:40:13.642Z,31.80
2017-11-07T13:42:39.896Z,33.07
2017-11-07T13:45:06.092Z,25.60
2017-11-07T13:47:32.328Z,28.70
2017-11-07T13:49:58.497Z,35.97
2017-11-07T13:52:24.774Z,31.03
2017-11-07T13:54:51.039Z,30.50
2017-11-07T13:57:18.031Z,36.13
2017-11-07T13:59:44.264Z,33.23
2017-11-07T14:02:10.493Z,31.70
2017-11-07T14:04:36.714Z,30.13
2017-11-07T14:07:02.941Z,27.87
2017-11-07T14:09:29.918Z,30.67
2017-11-07T14:11:56.147Z,27.77
2017-11-07T14:14:22.409Z,32.37
2017-11-07T14:16:48.628Z,26.73
2017-11-07T14:19:15.718Z,30.07
2017-11-07T14:21:41.986Z,28.37
2017-11-07T14:24:08.210Z,34.73
2017-11-07T14:26:34.423Z,33.53
2017-11-07T14:29:00.616Z,33.57
2017-11-07T14:31:27.545Z,28.50
2017-11-07T14:33:54.539Z,30.53
2017-11-07T14:36:20.732Z,33.03
2017-11-07T14:38:46.991Z,38.23
2017-11-07T14:41:13.217Z,29.47
2017-11-07T14:43:39.489Z,31.30
2017-11-07T14:46:05.675Z,35.73
2017-11-07T14:48:31.865Z,33.27
2017-11-07T14:50:58.183Z,32.93
2017-11-07T14:53:25.163Z,29.77
2017-11-07T14:55:52.142Z,30.23
2017-11-07T14:58:18.435Z,31.77
2017-11-07T15:00:45.392Z,27.70
2017-11-07T15:03:12.350Z,29.27
2017-11-07T15:05:38.663Z,26.87
2017-11-07T15:08:05.681Z,30.57
2017-11-07T15:10:31.935Z,35.37
2017-11-07T15:12:58.834Z,38.37
2017-11-07T15:15:25.060Z,35.73
2017-11-07T15:17:51.307Z,31.83
2017-11-07T15:20:17.598Z,33.47
2017-11-07T15:22:43.920Z,34.83
2017-11-07T15:25:10.129Z,31.30
2017-11-07T15:27:37.073Z,32.50
2017-11-07T15:30:04.036Z,29.80
2017-11-07T15:32:30.195Z,30.60
2017-11-07T15:34:56.475Z,32.97
2017-11-07T15:37:23.452Z,31.23
2017-11-07T15:39:49.678Z,28.27
2017-11-07T15:42:15.938Z,31.70
2017-11-07T15:44:42.167Z,35.00
2017-11-07T15:47:08.452Z,32.23
2017-11-07T15:49:34.657Z,30.10
2017-11-07T15:52:01.647Z,32.03
2017-11-07T15:54:27.931Z,30.97
2017-11-07T15:56:54.916Z,30.63
2017-11-07T15:59:21.123Z,33.47
2017-11-07T16:01:48.078Z,35.10
2017-11-07T16:04:14.291Z,33.10
2017-11-07T16:06:41.293Z,33.90
2017-11-07T16:09:07.574Z,34.20
2017-11-07T16:11:33.840Z,38.00
2017-11-07T16:14:00.099Z,34.13
2017-11-07T16:16:26.309Z,33.80
2017-11-07T16:18:52.535Z,37.23
2017-11-07T16:21:18.886Z,41.13
2017-11-07T16:23:45.903Z,37.03
2017-11-07T16:26:12.204Z,38.13
2017-11-07T16:28:38.414Z,36.23
2017-11-07T16:31:05.388Z,36.50
2017-11-07T16:33:31.612Z,38.23
2017-11-07T16:35:57.820Z,36.07
2017-11-07T16:38:24.810Z,42.43
2017-11-07T16:40:51.106Z,34.50
2017-11-07T16:43:17.362Z,42.17
2017-11-07T16:45:43.644Z,38.97
2017-11-07T16:48:10.569Z,41.97
2017-11-07T16:50:36.786Z,42.40
2017-11-07T16:53:03.047Z,42.10
2017-11-07T16:55:29.988Z,41.17
2017-11-07T16:57:56.974Z,35.53
2017-11-07T17:00:23.223Z,39.40
2017-11-07T17:02:49.477Z,36.87
2017-11-07T17:05:15.803Z,42.90
2017-11-07T17:07:42.485Z,39.47
2017-11-07T17:10:08.789Z,39.43
2017-11-07T17:12:35.008Z,41.20
2017-11-07T17:15:01.299Z,45.80
2017-11-07T17:17:27.568Z,42.80
2017-11-07T17:19:53.820Z,41.73
2017-11-07T17:22:20.854Z,41.40
2017-11-07T17:24:47.873Z,41.83
2017-11-07T17:27:14.068Z,43.47
2017-11-07T17:29:40.279Z,46.73
2017-11-07T17:32:06.460Z,42.73
2017-11-07T17:34:32.661Z,43.17
2017-11-07T17:36:58.879Z,45.90
2017-11-07T17:39:25.136Z,41.50
2017-11-07T17:41:51.391Z,41.70
2017-11-07T17:44:18.676Z,37.73
2017-11-07T17:46:44.947Z,39.90
2017-11-07T17:49:11.116Z,38.43
2017-11-07T17:51:38.310Z,44.53
2017-11-07T17:54:04.517Z,41.97
2017-11-07T17:56:30.798Z,39.40
2017-11-07T17:58:57.424Z,39.43
2017-11-07T18:01:23.667Z,44.50
2017-11-07T18:03:49.887Z,41.27
2017-11-07T18:06:16.104Z,42.30
2017-11-07T18:08:42.398Z,37.77
2017-11-07T18:11:08.640Z,43.03
2017-11-07T18:13:34.849Z,41.90
2017-11-07T18:16:01.060Z,41.33
2017-11-07T18:18:28.015Z,45.27
2017-11-07T18:20:55.024Z,41.57
2017-11-07T18:23:22.018Z,41.40
2017-11-07T18:25:48.286Z,41.43
2017-11-07T18:28:14.556Z,42.53
2017-11-07T18:30:41.550Z,52.73
2017-11-07T18:33:07.819Z,41.93
2017-11-07T18:35:34.825Z,43.10
2017-11-07T18:38:01.081Z,39.00
2017-11-07T18:40:28.123Z,40.67
2017-11-07T18:42:55.109Z,43.53
2017-11-07T18:45:22.054Z,41.23
2017-11-07T18:47:49.015Z,45.70
2017-11-07T18:50:15.335Z,39.60
2017-11-07T18:52:41.920Z,41.67
2017-11-07T18:55:08.120Z,40.73
2017-11-07T18:57:34.416Z,41.47
2017-11-07T19:00:01.399Z,39.83
2017-11-07T19:02:27.678Z,45.37
2017-11-07T19:04:54.016Z,47.90
2017-11-07T19:07:21.030Z,52.77
2017-11-07T19:09:47.287Z,47.77
2017-11-07T19:12:13.470Z,44.57
2017-11-07T19:14:39.677Z,43.07
2017-11-07T19:17:06.002Z,53.23
2017-11-07T19:19:32.225Z,45.17
2017-11-07T19:21:59.303Z,41.60
2017-11-07T19:24:25.662Z,47.30
2017-11-07T19:26:51.896Z,44.90
2017-11-07T19:29:18.180Z,43.67
2017-11-07T19:31:44.428Z,45.73
2017-11-07T19:34:10.711Z,49.23
2017-11-07T19:36:37.781Z,43.97
2017-11-07T19:39:10.949Z,48.03
2017-11-07T19:41:37.955Z,45.80
2017-11-07T19:44:04.225Z,43.30
2017-11-07T19:46:31.264Z,46.47
2017-11-07T19:48:58.304Z,42.07
2017-11-07T19:51:24.552Z,44.73
2017-11-07T19:53:51.607Z,43.10
2017-11-07T19:56:17.853Z,46.93
2017-11-07T19:58:44.108Z,43.83
2017-11-07T20:01:10.411Z,41.33
2017-11-07T20:03:36.633Z,47.70
2017-11-07T20:06:02.960Z,50.73
2017-11-07T20:08:29.231Z,46.40
2017-11-07T20:10:55.458Z,48.50
2017-11-07T20:13:21.705Z,41.30
2017-11-07T20:15:47.934Z,46.63
2017-11-07T20:18:14.137Z,48.83
2017-11-07T20:20:40.362Z,45.50
2017-11-07T20:23:06.603Z,47.20
2017-11-07T20:25:32.808Z,44.60
2017-11-07T20:27:59.076Z,45.53
2017-11-07T20:30:25.340Z,47.63
2017-11-07T20:32:52.270Z,47.00
2017-11-07T20:35:19.260Z,45.07
2017-11-07T20:37:45.557Z,41.57
2017-11-07T20:40:12.540Z,40.67
2017-11-07T20:42:38.974Z,42.23
2017-11-07T20:45:05.325Z,42.43
2017-11-07T20:47:31.578Z,43.30
2017-11-07T20:49:57.816Z,45.83
2017-11-07T20:52:24.793Z,45.23
2017-11-07T20:54:51.082Z,48.73
2017-11-07T20:57:18.058Z,43.90
2017-11-07T20:59:45.003Z,42.83
2017-11-07T21:02:11.321Z,47.43
2017-11-07T21:04:38.310Z,44.07
2017-11-07T21:07:07.281Z,43.60
2017-11-07T21:09:34.190Z,44.70
2017-11-07T21:12:01.112Z,42.47
2017-11-07T21:14:28.702Z,44.90
2017-11-07T21:16:55.672Z,49.93
2017-11-07T21:19:22.539Z,58.00
2017-11-07T21:21:50.965Z,49.10
2017-11-07T21:24:17.212Z,53.70
2017-11-07T21:26:44.166Z,54.37
2017-11-07T21:29:11.989Z,57.53
2017-11-07T21:31:38.250Z,74.97
2017-11-07T21:34:05.450Z,57.67
2017-11-07T21:36:31.673Z,50.73
2017-11-07T21:38:57.927Z,62.73
2017-11-07T21:41:24.156Z,47.40
2017-11-07T21:43:51.170Z,58.23
2017-11-07T21:46:17.444Z,53.00
2017-11-07T21:48:43.710Z,93.60
2017-11-07T21:53:52.466Z,74.17
2017-11-07T21:56:19.200Z,66.60
2017-11-07T21:58:45.693Z,68.90
2017-11-07T22:01:13.336Z,79.30
2017-11-07T22:03:40.966Z,67.47
2017-11-07T22:06:19.193Z,79.57
2017-11-07T22:08:45.576Z,63.93
2017-11-07T22:11:13.148Z,60.90
2017-11-07T22:13:39.360Z,46.87
2017-11-07T22:16:06.598Z,47.83
2017-11-07T22:18:34.141Z,41.93
2017-11-07T22:21:00.369Z,42.43
2017-11-07T22:23:26.626Z,43.07
2017-11-07T22:25:53.603Z,42.07
2017-11-07T22:28:49.316Z,45.07
2017-11-07T22:31:15.577Z,45.30
2017-11-07T22:33:43.274Z,42.47
2017-11-07T22:36:09.546Z,42.90
2017-11-07T22:38:38.660Z,44.80
2017-11-07T22:41:05.877Z,43.83
2017-11-07T22:43:32.087Z,43.93
2017-11-07T22:45:59.706Z,40.90
2017-11-07T22:48:25.986Z,43.43
2017-11-07T22:50:52.151Z,40.23
2017-11-07T22:53:18.418Z,44.23
2017-11-07T22:55:45.673Z,37.70
2017-11-07T22:58:11.915Z,36.43
2017-11-07T23:00:38.939Z,41.07
2017-11-07T23:03:05.439Z,40.37
2017-11-07T23:05:31.672Z,41.70
2017-11-07T23:07:57.902Z,38.90
2017-11-07T23:10:24.170Z,34.67
2017-11-07T23:12:50.411Z,37.37
2017-11-07T23:15:19.655Z,39.23
2017-11-07T23:17:46.208Z,37.50
2017-11-07T23:20:12.383Z,43.50
2017-11-07T23:22:38.640Z,43.63
2017-11-07T23:25:04.922Z,44.63
2017-11-07T23:27:31.957Z,42.57
2017-11-07T23:29:58.158Z,50.53
2017-11-07T23:32:24.407Z,51.27
2017-11-07T23:34:51.552Z,46.43
2017-11-07T23:37:18.407Z,44.27
2017-11-07T23:39:46.590Z,49.60
2017-11-07T23:42:12.772Z,46.00
2017-11-07T23:44:41.189Z,49.43
2017-11-07T23:47:08.382Z,53.10
2017-11-07T23:49:35.620Z,50.80
2017-11-07T23:52:02.576Z,65.07
2017-11-07T23:54:28.840Z,54.60
2017-11-07T23:56:56.142Z,55.93
2017-11-07T23:59:23.104Z,50.50
